Погода Нуржауна неделю

Атырауская область, Казахстан

15 - 21 июля
  • 15июля
    Сегодня
    +23°
    +35°
    Ясно и безоблачно
    ВремяПогодаТемператураВлажностьДавлениеВетер, м/сВероятность осадков
    02:00Ясно и безоблачно+26°C39 %755 мм2.2 м/с2 %
    05:00Ясно и безоблачно+23°C46 %755 мм1.9 м/с2 %
    08:00Ясно и безоблачно+25°C45 %756 мм2.1 м/с2 %
    11:00Ясно и безоблачно+33°C31 %756 мм3.9 м/с2 %
    14:00Ясно и безоблачно+35°C27 %756 мм4.5 м/с3 %
    17:00Ясно и безоблачно+35°C25 %755 мм5.1 м/с4 %
    20:00Облачно с прояснениями+33°C25 %755 мм4.5 м/с2 %
    23:00Ясно и безоблачно+29°C33 %756 мм2.7 м/с2 %
  • 16июля
    Вторник
    +22°
    +36°
    Практически безоблачно
    ВремяПогодаТемператураВлажностьДавлениеВетер, м/сВероятность осадков
    02:00Ясно и безоблачно+26°C41 %756 мм2.0 м/с2 %
    05:00Ясно и безоблачно+23°C49 %756 мм1.4 м/с2 %
    08:00Ясно и безоблачно+26°C42 %757 мм1.9 м/с2 %
    11:00Ясно и безоблачно+34°C29 %757 мм3.8 м/с2 %
    14:00Практически безоблачно+36°C23 %757 мм5.1 м/с2 %
    17:00Ясно и безоблачно+35°C21 %756 мм4.4 м/с4 %
    20:00Ясно и безоблачно+32°C20 %756 мм3.4 м/с2 %
    23:00Практически безоблачно+28°C25 %757 мм2.0 м/с2 %
  • 17июля
    Среда
    +21°
    +35°
    Ясно и безоблачно
    ВремяПогодаТемператураВлажностьДавлениеВетер, м/сВероятность осадков
    02:00Ясно и безоблачно+25°C31 %757 мм2.2 м/с1 %
    05:00Ясно и безоблачно+23°C41 %758 мм2.5 м/с2 %
    08:00Ясно и безоблачно+25°C40 %758 мм2.5 м/с2 %
    11:00Ясно и безоблачно+31°C30 %759 мм4.2 м/с2 %
    14:00Ясно и безоблачно+34°C23 %758 мм5.2 м/с2 %
    17:00Ясно и безоблачно+34°C19 %758 мм4.6 м/с2 %
    20:00Практически безоблачно+32°C19 %757 мм3.5 м/с2 %
    23:00Практически безоблачно+27°C31 %758 мм1.2 м/с2 %
  • 18июля
    Четверг
    +22°
    +35°
    Ясно и безоблачно
    ВремяПогодаТемператураВлажностьДавлениеВетер, м/сВероятность осадков
    02:00Ясно и безоблачно+23°C53 %758 мм1.6 м/с2 %
    05:00Ясно и безоблачно+22°C65 %758 мм1.3 м/с2 %
    08:00Ясно и безоблачно+25°C34 %758 мм2.2 м/с2 %
    11:00Ясно и безоблачно+32°C23 %758 мм3.2 м/с2 %
    14:00Ясно и безоблачно+35°C20 %757 мм5.2 м/с2 %
    17:00Ясно и безоблачно+34°C18 %756 мм5.4 м/с2 %
    20:00Ясно и безоблачно+32°C19 %756 мм3.3 м/с2 %
    23:00Ясно и безоблачно+28°C29 %757 мм2.1 м/с2 %
  • 19июля
    Пятница
    +22°
    +35°
    Практически безоблачно
    ВремяПогодаТемператураВлажностьДавлениеВетер, м/сВероятность осадков
    02:00Ясно и безоблачно+24°C36 %756 мм1.2 м/с2 %
    05:00Ясно и безоблачно+22°C39 %756 мм1.1 м/с2 %
    08:00Ясно и безоблачно+24°C34 %756 мм1.6 м/с2 %
    11:00Ясно и безоблачно+33°C23 %755 мм2.0 м/с2 %
    14:00Практически безоблачно+34°C18 %754 мм4.0 м/с2 %
    17:00Практически безоблачно+33°C18 %753 мм3.8 м/с3 %
    20:00Практически безоблачно+31°C32 %753 мм5.4 м/с4 %
    23:00Ясно и безоблачно+27°C48 %754 мм3.2 м/с2 %
Мы используем cookies
Соглашаюсь